sensor_id;sensor_type;location;lat;lon;timestamp;pressure;altitude;pressure_sealevel;temperature;humidity
24746;BME280;12845;52.042;6.838;2022-10-16T03:52:10;68104.41;;;12.05;100.00
24746;BME280;12845;52.042;6.838;2022-10-16T03:54:36;68105.97;;;12.04;100.00
24746;BME280;12845;52.042;6.838;2022-10-16T03:57:01;68108.81;;;12.07;100.00
24746;BME280;12845;52.042;6.838;2022-10-16T03:59:26;68109.94;;;12.08;100.00
24746;BME280;12845;52.042;6.838;2022-10-16T04:01:52;68109.38;;;12.07;100.00
24746;BME280;12845;52.042;6.838;2022-10-16T04:04:17;68109.94;;;12.08;100.00
24746;BME280;12845;52.042;6.838;2022-10-16T04:06:43;68110.50;;;12.08;100.00
24746;BME280;12845;52.042;6.838;2022-10-16T04:09:08;68112.22;;;12.10;100.00
24746;BME280;12845;52.042;6.838;2022-10-16T04:11:33;68111.09;;;12.09;100.00
24746;BME280;12845;52.042;6.838;2022-10-16T04:16:24;68103.84;;;12.05;100.00
24746;BME280;12845;52.042;6.838;2022-10-16T04:18:49;68105.41;;;12.04;100.00
24746;BME280;12845;52.042;6.838;2022-10-16T04:21:15;68110.72;;;12.04;100.00
24746;BME280;12845;52.042;6.838;2022-10-16T04:26:06;68101.00;;;12.02;100.00
24746;BME280;12845;52.042;6.838;2022-10-16T04:28:32;68103.13;;;12.02;100.00
24746;BME280;12845;52.042;6.838;2022-10-16T04:35:48;68098.75;;;12.00;100.00
24746;BME280;12845;52.042;6.838;2022-10-16T04:38:13;68107.69;;;12.06;100.00
24746;BME280;12845;52.042;6.838;2022-10-16T04:40:38;68101.59;;;12.03;100.00
24746;BME280;12845;52.042;6.838;2022-10-16T04:43:04;68102.72;;;12.04;100.00
24746;BME280;12845;52.042;6.838;2022-10-16T04:47:59;68105.97;;;12.04;100.00
24746;BME280;12845;52.042;6.838;2022-10-16T04:50:25;68104.28;;;12.03;100.00
24746;BME280;12845;52.042;6.838;2022-10-16T04:52:50;68107.09;;;12.05;100.00
24746;BME280;12845;52.042;6.838;2022-10-16T04:57:41;68107.69;;;12.06;100.00
24746;BME280;12845;52.042;6.838;2022-10-16T05:02:33;68107.25;;;12.08;100.00
24746;BME280;12845;52.042;6.838;2022-10-16T05:04:58;68111.09;;;12.09;100.00
24746;BME280;12845;52.042;6.838;2022-10-16T05:07:24;68116.41;;;12.09;100.00
24746;BME280;12845;52.042;6.838;2022-10-16T05:09:49;68112.22;;;12.10;100.00
24746;BME280;12845;52.042;6.838;2022-10-16T05:12:14;68111.09;;;12.09;100.00
24746;BME280;12845;52.042;6.838;2022-10-16T05:14:40;68110.72;;;12.04;100.00
24746;BME280;12845;52.042;6.838;2022-10-16T05:17:05;68103.69;;;12.02;100.00
24746;BME280;12845;52.042;6.838;2022-10-16T05:21:56;68109.03;;;12.02;100.00
24746;BME280;12845;52.042;6.838;2022-10-16T05:24:21;68103.13;;;12.02;100.00
24746;BME280;12845;52.042;6.838;2022-10-16T05:29:12;68102.00;;;12.01;100.00
24746;BME280;12845;52.042;6.838;2022-10-16T05:31:37;68102.56;;;12.01;100.00
24746;BME280;12845;52.042;6.838;2022-10-16T05:34:02;68107.31;;;12.01;100.00
24746;BME280;12845;52.042;6.838;2022-10-16T05:41:19;68100.44;;;12.02;100.00
24746;BME280;12845;52.042;6.838;2022-10-16T05:51:10;68099.16;;;11.98;100.00
24746;BME280;12845;52.042;6.838;2022-10-16T05:53:37;68098.03;;;11.97;100.00
24746;BME280;12845;52.042;6.838;2022-10-16T05:58:34;68095.91;;;11.98;100.00
24746;BME280;12845;52.042;6.838;2022-10-16T06:01:06;68092.69;;;11.97;100.00
24746;BME280;12845;52.042;6.838;2022-10-16T06:03:32;68096.31;;;11.95;100.00
24746;BME280;12845;52.042;6.838;2022-10-16T06:08:23;68093.06;;;11.95;100.00
24746;BME280;12845;52.042;6.838;2022-10-16T06:10:59;68095.19;;;11.94;100.00
24746;BME280;12845;52.042;6.838;2022-10-16T06:13:25;68089.50;;;11.89;100.00
24746;BME280;12845;52.042;6.838;2022-10-16T06:15:50;68087.78;;;11.88;100.00
24746;BME280;12845;52.042;6.838;2022-10-16T06:18:16;68084.53;;;11.87;100.00
24746;BME280;12845;52.042;6.838;2022-10-16T06:20:41;68087.22;;;11.87;100.00
24746;BME280;12845;52.042;6.838;2022-10-16T06:23:06;68086.66;;;11.87;100.00
24746;BME280;12845;52.042;6.838;2022-10-16T06:27:57;68084.94;;;11.85;100.00
24746;BME280;12845;52.042;6.838;2022-10-16T06:30:22;68083.22;;;11.84;100.00
24746;BME280;12845;52.042;6.838;2022-10-16T06:32:48;68084.94;;;11.85;100.00
24746;BME280;12845;52.042;6.838;2022-10-16T06:37:38;68082.09;;;11.83;100.00
24746;BME280;12845;52.042;6.838;2022-10-16T06:44:55;68083.41;;;11.86;100.00
24746;BME280;12845;52.042;6.838;2022-10-16T06:47:20;68086.66;;;11.87;100.00
24746;BME280;12845;52.042;6.838;2022-10-16T06:49:45;68082.66;;;11.83;100.00
24746;BME280;12845;52.042;6.838;2022-10-16T06:52:11;68081.50;;;11.82;100.00
24746;BME280;12845;52.042;6.838;2022-10-16T06:54:36;68088.56;;;11.84;100.00
24746;BME280;12845;52.042;6.838;2022-10-16T06:57:01;68083.22;;;11.84;100.00
24746;BME280;12845;52.042;6.838;2022-10-16T06:59:27;68078.28;;;11.82;100.00
24746;BME280;12845;52.042;6.838;2022-10-16T07:01:52;68080.00;;;11.83;100.00
24746;BME280;12845;52.042;6.838;2022-10-16T07:04:18;68080.00;;;11.83;100.00
24746;BME280;12845;52.042;6.838;2022-10-16T07:06:43;68083.41;;;11.86;100.00
24746;BME280;12845;52.042;6.838;2022-10-16T07:11:37;68095.91;;;11.98;100.00
24746;BME280;12845;52.042;6.838;2022-10-16T07:14:03;68102.16;;;12.03;100.00
24746;BME280;12845;52.042;6.838;2022-10-16T07:16:31;68108.41;;;12.09;100.00
24746;BME280;12845;52.042;6.838;2022-10-16T07:18:58;68116.75;;;12.14;100.00
24746;BME280;12845;52.042;6.838;2022-10-16T07:21:26;68121.47;;;12.21;100.00
24746;BME280;12845;52.042;6.838;2022-10-16T07:26:17;68130.16;;;12.31;100.00
24746;BME280;12845;52.042;6.838;2022-10-16T07:28:43;68140.06;;;12.35;100.00
24746;BME280;12845;52.042;6.838;2022-10-16T07:31:15;68139.81;;;12.39;100.00
24746;BME280;12845;52.042;6.838;2022-10-16T07:36:09;68156.53;;;12.50;100.00
24746;BME280;12845;52.042;6.838;2022-10-16T07:38:34;68165.63;;;12.58;100.00
24746;BME280;12845;52.042;6.838;2022-10-16T07:41:05;68168.06;;;12.62;100.00
24746;BME280;12845;52.042;6.838;2022-10-16T07:43:31;68178.13;;;12.69;100.00
24746;BME280;12845;52.042;6.838;2022-10-16T07:45:57;68179.59;;;12.75;100.00
24746;BME280;12845;52.042;6.838;2022-10-16T07:48:23;68194.03;;;12.83;100.00
24746;BME280;12845;52.042;6.838;2022-10-16T07:50:49;68199.72;;;12.88;100.00
24746;BME280;12845;52.042;6.838;2022-10-16T07:53:14;68204.44;;;12.95;100.00
24746;BME280;12845;52.042;6.838;2022-10-16T07:55:40;68214.50;;;13.02;100.00
24746;BME280;12845;52.042;6.838;2022-10-16T07:58:06;68212.97;;;13.03;100.00
24746;BME280;12845;52.042;6.838;2022-10-16T08:00:32;68222.47;;;13.09;100.00
24746;BME280;12845;52.042;6.838;2022-10-16T08:02:58;68226.03;;;13.15;100.00
24746;BME280;12845;52.042;6.838;2022-10-16T08:07:52;68238.97;;;13.24;100.00
24746;BME280;12845;52.042;6.838;2022-10-16T08:10:20;68239.16;;;13.26;100.00
24746;BME280;12845;52.042;6.838;2022-10-16T08:12:47;68245.56;;;13.35;100.00
24746;BME280;12845;52.042;6.838;2022-10-16T08:15:12;68258.31;;;13.41;100.00
24746;BME280;12845;52.042;6.838;2022-10-16T08:17:38;68267.97;;;13.50;100.00
24746;BME280;12845;52.042;6.838;2022-10-16T08:20:03;68269.09;;;13.51;100.00
24746;BME280;12845;52.042;6.838;2022-10-16T08:24:54;68282.19;;;13.63;100.00
24746;BME280;12845;52.042;6.838;2022-10-16T08:27:20;68283.09;;;13.68;100.00
24746;BME280;12845;52.042;6.838;2022-10-16T08:29:45;68290.72;;;13.70;100.00
24746;BME280;12845;52.042;6.838;2022-10-16T08:32:10;68299.41;;;13.81;100.00
24746;BME280;12845;52.042;6.838;2022-10-16T08:34:36;68306.81;;;13.87;100.00
24746;BME280;12845;52.042;6.838;2022-10-16T08:39:27;68322.59;;;13.99;100.00
24746;BME280;12845;52.042;6.838;2022-10-16T08:50:12;68343.41;;;14.22;100.00
24746;BME280;12845;52.042;6.838;2022-10-16T08:55:56;68351.03;;;14.25;100.00
24746;BME280;12845;52.042;6.838;2022-10-16T08:58:39;68349.88;;;14.23;100.00
24746;BME280;12845;52.042;6.838;2022-10-16T09:14:17;68365.81;;;14.38;100.00
24746;BME280;12845;52.042;6.838;2022-10-16T09:16:51;68375.09;;;14.49;100.00
24746;BME280;12845;52.042;6.838;2022-10-16T09:19:40;68390.88;;;14.60;100.00
24746;BME280;12845;52.042;6.838;2022-10-16T09:22:16;68383.25;;;14.58;100.00
24746;BME280;12845;52.042;6.838;2022-10-16T09:24:42;68390.09;;;14.64;100.00
24746;BME280;12845;52.042;6.838;2022-10-16T09:29:35;68409.28;;;14.79;100.00
24746;BME280;12845;52.042;6.838;2022-10-16T09:32:18;68421.63;;;14.88;100.00
24746;BME280;12845;52.042;6.838;2022-10-16T09:34:52;68421.38;;;14.93;100.00
24746;BME280;12845;52.042;6.838;2022-10-16T09:37:22;68427.91;;;14.94;100.00
24746;BME280;12845;52.042;6.838;2022-10-16T09:39:54;68434.16;;;14.99;100.00
24746;BME280;12845;52.042;6.838;2022-10-16T09:42:30;68433.34;;;15.03;100.00
24746;BME280;12845;52.042;6.838;2022-10-16T09:44:57;68440.34;;;15.12;100.00
24746;BME280;12845;52.042;6.838;2022-10-16T09:47:25;68459.22;;;15.22;100.00
24746;BME280;12845;52.042;6.838;2022-10-16T09:50:01;68465.06;;;15.29;100.00
24746;BME280;12845;52.042;6.838;2022-10-16T09:52:30;68471.91;;;15.35;100.00
24746;BME280;12845;52.042;6.838;2022-10-16T09:54:58;68473.63;;;15.37;99.23
24746;BME280;12845;52.042;6.838;2022-10-16T09:57:24;68474.34;;;15.40;98.82
24746;BME280;12845;52.042;6.838;2022-10-16T10:02:19;68466.78;;;15.31;98.87
24746;BME280;12845;52.042;6.838;2022-10-16T10:04:50;68484.28;;;15.44;98.14
24746;BME280;12845;52.042;6.838;2022-10-16T10:07:20;68489.56;;;15.51;97.53
24746;BME280;12845;52.042;6.838;2022-10-16T10:09:48;68487.13;;;15.47;96.90
24746;BME280;12845;52.042;6.838;2022-10-16T10:14:51;68491.44;;;15.55;96.73
24746;BME280;12845;52.042;6.838;2022-10-16T10:19:46;68511.81;;;15.71;95.08
24746;BME280;12845;52.042;6.838;2022-10-16T10:22:26;68513.69;;;15.75;93.57
24746;BME280;12845;52.042;6.838;2022-10-16T10:24:55;68527.94;;;15.88;91.65
24746;BME280;12845;52.042;6.838;2022-10-16T10:27:20;68523.75;;;15.82;92.77
24746;BME280;12845;52.042;6.838;2022-10-16T10:30:00;68522.47;;;15.78;92.59
24746;BME280;12845;52.042;6.838;2022-10-16T10:32:30;68532.47;;;15.92;92.41
24746;BME280;12845;52.042;6.838;2022-10-16T10:46:03;68554.94;;;16.08;88.27
24746;BME280;12845;52.042;6.838;2022-10-16T10:56:16;68555.28;;;16.13;87.24
24746;BME280;12845;52.042;6.838;2022-10-16T10:58:57;68553.25;;;16.06;86.96
24746;BME280;12845;52.042;6.838;2022-10-16T11:01:47;68545.81;;;15.99;86.64
24746;BME280;12845;52.042;6.838;2022-10-16T11:07:25;68572.78;;;16.26;87.44
24746;BME280;12845;52.042;6.838;2022-10-16T11:10:03;68591.16;;;16.45;86.80
24746;BME280;12845;52.042;6.838;2022-10-16T11:12:34;68602.25;;;16.50;86.81
24746;BME280;12845;52.042;6.838;2022-10-16T11:15:31;68609.97;;;16.62;84.10
24746;BME280;12845;52.042;6.838;2022-10-16T11:21:06;68601.84;;;16.52;83.37
24746;BME280;12845;52.042;6.838;2022-10-16T11:26:05;68608.28;;;16.60;83.99
24746;BME280;12845;52.042;6.838;2022-10-16T11:28:39;68620.81;;;16.72;84.12
24746;BME280;12845;52.042;6.838;2022-10-16T11:31:19;68624.81;;;16.75;80.86
24746;BME280;12845;52.042;6.838;2022-10-16T11:34:29;68653.75;;;16.99;82.76
24746;BME280;12845;52.042;6.838;2022-10-16T11:37:05;68650.72;;;16.94;80.85
24746;BME280;12845;52.042;6.838;2022-10-16T11:39:31;68652.44;;;16.95;81.85
24746;BME280;12845;52.042;6.838;2022-10-16T11:45:13;68673.69;;;17.17;80.71
24746;BME280;12845;52.042;6.838;2022-10-16T11:47:45;68663.03;;;17.09;78.95
24746;BME280;12845;52.042;6.838;2022-10-16T11:50:23;68672.00;;;17.15;79.55
24746;BME280;12845;52.042;6.838;2022-10-16T11:53:14;68677.69;;;17.20;80.33
24746;BME280;12845;52.042;6.838;2022-10-16T11:55:44;68699.94;;;17.40;80.59
24746;BME280;12845;52.042;6.838;2022-10-16T12:08:59;68745.03;;;17.80;76.18
24746;BME280;12845;52.042;6.838;2022-10-16T12:16:59;68740.06;;;17.78;75.60
24746;BME280;12845;52.042;6.838;2022-10-16T12:19:27;68735.16;;;17.69;75.29
24746;BME280;12845;52.042;6.838;2022-10-16T12:21:56;68735.91;;;17.72;76.32
24746;BME280;12845;52.042;6.838;2022-10-16T12:24:27;68756.84;;;17.89;76.71
24746;BME280;12845;52.042;6.838;2022-10-16T12:26:55;68756.03;;;17.93;76.90
24746;BME280;12845;52.042;6.838;2022-10-16T12:31:47;68759.47;;;17.96;70.94
24746;BME280;12845;52.042;6.838;2022-10-16T12:34:42;68766.88;;;18.02;70.35
24746;BME280;12845;52.042;6.838;2022-10-16T12:37:23;68734.34;;;17.73;69.22
24746;BME280;12845;52.042;6.838;2022-10-16T12:39:50;68733.22;;;17.72;72.24
24746;BME280;12845;52.042;6.838;2022-10-16T12:44:48;68769.75;;;18.05;73.03
24746;BME280;12845;52.042;6.838;2022-10-16T12:49:54;68783.09;;;18.12;73.31
24746;BME280;12845;52.042;6.838;2022-10-16T12:52:34;68792.00;;;18.25;68.56
24746;BME280;12845;52.042;6.838;2022-10-16T12:55:00;68793.13;;;18.26;68.40
24746;BME280;12845;52.042;6.838;2022-10-16T13:06:33;68816.13;;;18.49;68.55
24746;BME280;12845;52.042;6.838;2022-10-16T13:12:05;68812.38;;;18.41;71.46
24746;BME280;12845;52.042;6.838;2022-10-16T13:17:33;68837.09;;;18.65;71.03
24746;BME280;12845;52.042;6.838;2022-10-16T13:20:31;68834.81;;;18.63;72.28
24746;BME280;12845;52.042;6.838;2022-10-16T13:31:01;68895.38;;;19.17;69.28
24746;BME280;12845;52.042;6.838;2022-10-16T13:33:56;68881.66;;;19.05;71.66
24746;BME280;12845;52.042;6.838;2022-10-16T13:36:50;68863.38;;;18.89;70.00
24746;BME280;12845;52.042;6.838;2022-10-16T13:39:25;68843.56;;;18.74;71.51
24746;BME280;12845;52.042;6.838;2022-10-16T13:42:04;68850.97;;;18.80;69.91
24746;BME280;12845;52.042;6.838;2022-10-16T13:44:47;68876.91;;;18.99;71.94
24746;BME280;12845;52.042;6.838;2022-10-16T13:52:21;68890.38;;;19.15;74.30
24746;BME280;12845;52.042;6.838;2022-10-16T13:54:47;68904.50;;;19.26;69.35
24746;BME280;12845;52.042;6.838;2022-10-16T13:57:14;68894.94;;;19.20;69.94
24746;BME280;12845;52.042;6.838;2022-10-16T13:59:40;68924.91;;;19.42;68.97
24746;BME280;12845;52.042;6.838;2022-10-16T14:04:46;68937.06;;;19.55;68.71
24746;BME280;12845;52.042;6.838;2022-10-16T14:07:22;68944.47;;;19.61;66.43
24746;BME280;12845;52.042;6.838;2022-10-16T14:09:50;68927.75;;;19.44;70.09
24746;BME280;12845;52.042;6.838;2022-10-16T14:12:16;68926.06;;;19.43;66.29
24746;BME280;12845;52.042;6.838;2022-10-16T14:14:44;68921.63;;;19.41;69.98
24746;BME280;12845;52.042;6.838;2022-10-16T14:17:22;68916.50;;;19.36;67.11
24746;BME280;12845;52.042;6.838;2022-10-16T14:19:50;68900.50;;;19.22;67.07
24746;BME280;12845;52.042;6.838;2022-10-16T14:24:51;68918.63;;;19.36;67.77
24746;BME280;12845;52.042;6.838;2022-10-16T14:27:34;68938.78;;;19.56;68.63
24746;BME280;12845;52.042;6.838;2022-10-16T14:33:01;68928.47;;;19.47;66.23
24746;BME280;12845;52.042;6.838;2022-10-16T14:35:33;68931.63;;;19.45;67.64
24746;BME280;12845;52.042;6.838;2022-10-16T14:38:00;68931.91;;;19.50;69.16
24746;BME280;12845;52.042;6.838;2022-10-16T14:40:32;68913.22;;;19.36;65.72
24746;BME280;12845;52.042;6.838;2022-10-16T14:42:59;68896.50;;;19.19;67.40
24746;BME280;12845;52.042;6.838;2022-10-16T14:45:28;68919.78;;;19.37;70.33
24746;BME280;12845;52.042;6.838;2022-10-16T14:47:58;68938.78;;;19.56;69.03
24746;BME280;12845;52.042;6.838;2022-10-16T14:50:24;68946.63;;;19.61;68.43
24746;BME280;12845;52.042;6.838;2022-10-16T14:52:50;68947.91;;;19.65;67.85
24746;BME280;12845;52.042;6.838;2022-10-16T14:55:15;68900.66;;;19.25;67.83
24746;BME280;12845;52.042;6.838;2022-10-16T14:57:42;68880.94;;;19.02;70.14
24746;BME280;12845;52.042;6.838;2022-10-16T15:00:16;68853.91;;;18.76;69.92
24746;BME280;12845;52.042;6.838;2022-10-16T15:02:42;68847.22;;;18.72;71.57
24746;BME280;12845;52.042;6.838;2022-10-16T15:05:45;68835.81;;;18.62;72.24
24746;BME280;12845;52.042;6.838;2022-10-16T15:08:03;68829.69;;;18.59;74.33
24746;BME280;12845;52.042;6.838;2022-10-16T15:10:30;68812.53;;;18.43;75.58
24746;BME280;12845;52.042;6.838;2022-10-16T15:12:57;68821.09;;;18.51;76.43
24746;BME280;12845;52.042;6.838;2022-10-16T15:17:53;68813.09;;;18.44;74.52
24746;BME280;12845;52.042;6.838;2022-10-16T15:20:21;68797.88;;;18.33;77.41
24746;BME280;12845;52.042;6.838;2022-10-16T15:44:57;68707.94;;;17.47;84.78
24746;BME280;12845;52.042;6.838;2022-10-16T15:47:32;68699.38;;;17.40;85.29
24746;BME280;12845;52.042;6.838;2022-10-16T15:53:21;68665.91;;;17.12;87.43
24746;BME280;12845;52.042;6.838;2022-10-16T15:55:46;68660.59;;;17.05;89.22
24746;BME280;12845;52.042;6.838;2022-10-16T15:58:12;68641.19;;;16.87;89.31
24746;BME280;12845;52.042;6.838;2022-10-16T16:00:37;68622.53;;;16.73;90.92
24746;BME280;12845;52.042;6.838;2022-10-16T16:03:03;68605.00;;;16.60;92.18
24746;BME280;12845;52.042;6.838;2022-10-16T16:05:28;68603.97;;;16.52;93.22
24746;BME280;12845;52.042;6.838;2022-10-16T16:07:54;68590.59;;;16.44;93.31
24746;BME280;12845;52.042;6.838;2022-10-16T16:10:20;68584.72;;;16.37;93.14
24746;BME280;12845;52.042;6.838;2022-10-16T16:12:49;68582.31;;;16.32;93.82
24746;BME280;12845;52.042;6.838;2022-10-16T16:15:17;68575.22;;;16.31;94.60
24746;BME280;12845;52.042;6.838;2022-10-16T16:17:43;68571.06;;;16.24;95.03
24746;BME280;12845;52.042;6.838;2022-10-16T16:20:09;68562.94;;;16.15;96.45
24746;BME280;12845;52.042;6.838;2022-10-16T16:22:35;68554.53;;;16.10;96.98
24746;BME280;12845;52.042;6.838;2022-10-16T16:25:00;68546.56;;;16.02;96.52
24746;BME280;12845;52.042;6.838;2022-10-16T16:27:26;68541.25;;;15.95;97.10
24746;BME280;12845;52.042;6.838;2022-10-16T16:29:53;68527.75;;;15.86;97.02
24746;BME280;12845;52.042;6.838;2022-10-16T16:32:20;68524.91;;;15.83;98.23
24746;BME280;12845;52.042;6.838;2022-10-16T16:34:45;68508.56;;;15.71;98.53
24746;BME280;12845;52.042;6.838;2022-10-16T16:37:11;68504.38;;;15.65;99.66
24746;BME280;12845;52.042;6.838;2022-10-16T16:39:36;68497.53;;;15.58;100.00
24746;BME280;12845;52.042;6.838;2022-10-16T16:42:01;68482.31;;;15.47;100.00
24746;BME280;12845;52.042;6.838;2022-10-16T16:44:29;68482.00;;;15.42;100.00
24746;BME280;12845;52.042;6.838;2022-10-16T16:46:54;68469.06;;;15.33;100.00
24746;BME280;12845;52.042;6.838;2022-10-16T16:49:20;68459.38;;;15.24;100.00
24746;BME280;12845;52.042;6.838;2022-10-16T16:51:45;68447.44;;;15.14;100.00
24746;BME280;12845;52.042;6.838;2022-10-16T16:54:11;68436.75;;;15.06;100.00
24746;BME280;12845;52.042;6.838;2022-10-16T16:56:38;68432.22;;;15.02;100.00
24746;BME280;12845;52.042;6.838;2022-10-16T16:59:04;68431.31;;;14.97;100.00
24746;BME280;12845;52.042;6.838;2022-10-16T17:01:29;68426.75;;;14.93;100.00
24746;BME280;12845;52.042;6.838;2022-10-16T17:03:57;68414.56;;;14.86;100.00
24746;BME280;12845;52.042;6.838;2022-10-16T17:06:27;68405.88;;;14.76;100.00
24746;BME280;12845;52.042;6.838;2022-10-16T17:08:54;68406.25;;;14.74;100.00
24746;BME280;12845;52.042;6.838;2022-10-16T17:11:22;68406.81;;;14.75;100.00
24746;BME280;12845;52.042;6.838;2022-10-16T17:13:48;68398.06;;;14.72;100.00
24746;BME280;12845;52.042;6.838;2022-10-16T17:16:17;68401.69;;;14.70;100.00
24746;BME280;12845;52.042;6.838;2022-10-16T17:18:45;68388.22;;;14.60;100.00
24746;BME280;12845;52.042;6.838;2022-10-16T17:21:10;68384.06;;;14.54;100.00
24746;BME280;12845;52.042;6.838;2022-10-16T17:23:36;68382.94;;;14.53;100.00
24746;BME280;12845;52.042;6.838;2022-10-16T17:26:07;68377.78;;;14.49;100.00
24746;BME280;12845;52.042;6.838;2022-10-16T17:28:33;68371.13;;;14.45;100.00
24746;BME280;12845;52.042;6.838;2022-10-16T17:33:38;68360.47;;;14.38;100.00
24746;BME280;12845;52.042;6.838;2022-10-16T17:36:04;68360.88;;;14.36;100.00
24746;BME280;12845;52.042;6.838;2022-10-16T17:38:29;68357.88;;;14.31;100.00
24746;BME280;12845;52.042;6.838;2022-10-16T17:40:55;68351.78;;;14.28;100.00
24746;BME280;12845;52.042;6.838;2022-10-16T17:43:20;68344.78;;;14.19;100.00
24746;BME280;12845;52.042;6.838;2022-10-16T17:45:46;68336.56;;;14.16;100.00
24746;BME280;12845;52.042;6.838;2022-10-16T17:48:14;68333.00;;;14.11;100.00
24746;BME280;12845;52.042;6.838;2022-10-16T17:50:41;68333.38;;;14.09;100.00
24746;BME280;12845;52.042;6.838;2022-10-16T17:53:06;68326.72;;;14.05;100.00
24746;BME280;12845;52.042;6.838;2022-10-16T17:55:39;68313.41;;;13.98;100.00
24746;BME280;12845;52.042;6.838;2022-10-16T17:58:05;68310.41;;;13.93;100.00
24746;BME280;12845;52.042;6.838;2022-10-16T18:02:56;68310.25;;;13.90;100.00
24746;BME280;12845;52.042;6.838;2022-10-16T18:05:22;68311.94;;;13.92;100.00
24746;BME280;12845;52.042;6.838;2022-10-16T18:07:48;68311.75;;;13.89;100.00
24746;BME280;12845;52.042;6.838;2022-10-16T18:10:13;68305.50;;;13.84;100.00
24746;BME280;12845;52.042;6.838;2022-10-16T18:12:38;68299.25;;;13.78;100.00
24746;BME280;12845;52.042;6.838;2022-10-16T18:15:07;68297.56;;;13.76;100.00
24746;BME280;12845;52.042;6.838;2022-10-16T18:20:05;68293.16;;;13.75;100.00
24746;BME280;12845;52.042;6.838;2022-10-16T18:22:34;68291.84;;;13.71;100.00
24746;BME280;12845;52.042;6.838;2022-10-16T18:25:03;68286.91;;;13.69;100.00
24746;BME280;12845;52.042;6.838;2022-10-16T18:27:30;68279.91;;;13.61;100.00
24746;BME280;12845;52.042;6.838;2022-10-16T18:29:56;68267.97;;;13.50;100.00
24746;BME280;12845;52.042;6.838;2022-10-16T18:32:22;68266.81;;;13.49;100.00
24746;BME280;12845;52.042;6.838;2022-10-16T18:34:48;68271.38;;;13.53;100.00
24746;BME280;12845;52.042;6.838;2022-10-16T18:37:13;68268.72;;;13.53;100.00
24746;BME280;12845;52.042;6.838;2022-10-16T18:39:45;68272.19;;;13.49;100.00
24746;BME280;12845;52.042;6.838;2022-10-16T18:42:12;68259.63;;;13.45;100.00
24746;BME280;12845;52.042;6.838;2022-10-16T18:47:03;68257.75;;;13.41;100.00
24746;BME280;12845;52.042;6.838;2022-10-16T18:49:28;68252.41;;;13.41;100.00
24746;BME280;12845;52.042;6.838;2022-10-16T18:51:57;68254.31;;;13.38;100.00
24746;BME280;12845;52.042;6.838;2022-10-16T18:54:24;68249.56;;;13.38;100.00
24746;BME280;12845;52.042;6.838;2022-10-16T18:56:51;68252.06;;;13.36;100.00
24746;BME280;12845;52.042;6.838;2022-10-16T18:59:17;68251.06;;;13.37;100.00
24746;BME280;12845;52.042;6.838;2022-10-16T19:01:43;68257.75;;;13.41;100.00
24746;BME280;12845;52.042;6.838;2022-10-16T19:04:10;68253.91;;;13.40;100.00
24746;BME280;12845;52.042;6.838;2022-10-16T19:06:39;68252.78;;;13.39;100.00
24746;BME280;12845;52.042;6.838;2022-10-16T19:09:05;68258.31;;;13.41;100.00
24746;BME280;12845;52.042;6.838;2022-10-16T19:13:56;68259.44;;;13.42;100.00
24746;BME280;12845;52.042;6.838;2022-10-16T19:16:24;68259.06;;;13.44;100.00
24746;BME280;12845;52.042;6.838;2022-10-16T19:18:53;68264.56;;;13.47;100.00
24746;BME280;12845;52.042;6.838;2022-10-16T19:21:19;68261.72;;;13.44;100.00
24746;BME280;12845;52.042;6.838;2022-10-16T19:26:21;68263.41;;;13.46;100.00
24746;BME280;12845;52.042;6.838;2022-10-16T19:31:17;68265.69;;;13.48;100.00
24746;BME280;12845;52.042;6.838;2022-10-16T19:36:17;68277.09;;;13.58;100.00
24746;BME280;12845;52.042;6.838;2022-10-16T19:38:43;68276.28;;;13.62;100.00
24746;BME280;12845;52.042;6.838;2022-10-16T19:41:14;68282.34;;;13.65;100.00
24746;BME280;12845;52.042;6.838;2022-10-16T19:43:40;68281.97;;;13.67;100.00
24746;BME280;12845;52.042;6.838;2022-10-16T19:46:10;68287.31;;;13.67;100.00
24746;BME280;12845;52.042;6.838;2022-10-16T19:48:36;68287.50;;;13.70;100.00
24746;BME280;12845;52.042;6.838;2022-10-16T19:51:02;68284.63;;;13.67;100.00
24746;BME280;12845;52.042;6.838;2022-10-16T19:53:29;68281.78;;;13.65;100.00
24746;BME280;12845;52.042;6.838;2022-10-16T19:55:55;68282.94;;;13.66;100.00
24746;BME280;12845;52.042;6.838;2022-10-16T20:00:46;68272.13;;;13.56;100.00
24746;BME280;12845;52.042;6.838;2022-10-16T20:05:37;68267.63;;;13.45;100.00
24746;BME280;12845;52.042;6.838;2022-10-16T20:10:28;68258.47;;;13.44;100.00
24746;BME280;12845;52.042;6.838;2022-10-16T20:12:53;68260.00;;;13.43;100.00
24746;BME280;12845;52.042;6.838;2022-10-16T20:15:19;68255.63;;;13.41;100.00
24746;BME280;12845;52.042;6.838;2022-10-16T20:22:35;68245.97;;;13.32;100.00
24746;BME280;12845;52.042;6.838;2022-10-16T20:27:25;68244.66;;;13.29;100.00
24746;BME280;12845;52.042;6.838;2022-10-16T20:29:53;68246.38;;;13.30;100.00
24746;BME280;12845;52.042;6.838;2022-10-16T20:32:19;68244.81;;;13.31;100.00
24746;BME280;12845;52.042;6.838;2022-10-16T20:34:44;68254.56;;;13.33;100.00
24746;BME280;12845;52.042;6.838;2022-10-16T20:37:13;68242.16;;;13.31;100.00
24746;BME280;12845;52.042;6.838;2022-10-16T20:39:39;68241.59;;;13.31;100.00
24746;BME280;12845;52.042;6.838;2022-10-16T20:42:04;68242.16;;;13.31;100.00
24746;BME280;12845;52.042;6.838;2022-10-16T20:44:30;68242.56;;;13.29;100.00
24746;BME280;12845;52.042;6.838;2022-10-16T20:46:55;68241.97;;;13.29;100.00
24746;BME280;12845;52.042;6.838;2022-10-16T20:49:20;68241.41;;;13.28;100.00
24746;BME280;12845;52.042;6.838;2022-10-16T20:51:46;68238.56;;;13.26;100.00
24746;BME280;12845;52.042;6.838;2022-10-16T20:54:14;68238.75;;;13.28;100.00
24746;BME280;12845;52.042;6.838;2022-10-16T20:59:06;68240.09;;;13.25;100.00
24746;BME280;12845;52.042;6.838;2022-10-16T21:01:32;68239.72;;;13.27;100.00
24746;BME280;12845;52.042;6.838;2022-10-16T21:06:26;68238.38;;;13.23;100.00